WetterOnline ( http://www.wetteronline.de )

Wetter aktuell Freiburg

Aktuelles Wetter: Freiburg/Flugplatz (236m)

6-stündlich | Neueste Meldungen
Ortszeit Temperatur Wetter
Di, 24.04. 14:00 20.5° C wolkig
Di, 24.04. 8:00 11.9° C leicht bewölkt
Di, 24.04. 2:00 14.3° C bedeckt
Mo, 23.04. 20:00 15.6° C wolkig
Mo, 23.04. 14:00 16.8° C leichter Regen
Mo, 23.04. 8:00 19.8° C wolkig
Mo, 23.04. 2:00 14.8° C bedeckt
So, 22.04. 20:00 24.6° C wolkig
Ortszeit Temperatur Wetter
Di, 24.04. 16:10 21.7° C wolkig
Di, 24.04. 16:00 21.8° C wolkig
Di, 24.04. 15:50 21.8° C bewölkt
Di, 24.04. 15:40 21.6° C bewölkt
Di, 24.04. 15:30 22.2° C wolkig
Di, 24.04. 15:20 22.2° C wolkig
Di, 24.04. 15:00 21.1° C wolkig
Di, 24.04. 14:30 21.2° C bewölkt
Di, 24.04. 14:00 20.5° C wolkig
Di, 24.04. 13:30 20.7° C wolkig
Di, 24.04. 13:00 20.0° C wolkig
Ortszeit Relative Feuchte Sichtweite
Di, 24.04. 14:00 53% 40 km
Di, 24.04. 8:00 95% 14 km
Di, 24.04. 2:00 81% 45 km
Mo, 23.04. 20:00 85% 40 km
Mo, 23.04. 14:00 80% 14 km
Mo, 23.04. 8:00 44% 28 km
Mo, 23.04. 2:00 74% 27 km
So, 22.04. 20:00 36% 30 km
Ortszeit Relative Feuchte Sichtweite
Di, 24.04. 16:10 41% -
Di, 24.04. 16:00 41% 50 km
Di, 24.04. 15:50 41% -
Di, 24.04. 15:40 42% -
Di, 24.04. 15:30 41% 45 km
Di, 24.04. 15:20 41% -
Di, 24.04. 15:00 47% 50 km
Di, 24.04. 14:30 50% 45 km
Di, 24.04. 14:00 53% 40 km
Di, 24.04. 13:30 52% 35 km
Di, 24.04. 13:00 54% 35 km
Ortszeit Niederschlagsmenge Niederschlagsart
Di, 24.04. 14:00 0.0 l/m2 in 6 Std. -
Di, 24.04. 8:00 0.0 l/m2 in 12 Std. -
Di, 24.04. 2:00 0.0 l/m2 in 6 Std. -
Mo, 23.04. 20:00 4 l/m2 in 12 Std. Regen
Mo, 23.04. 14:00 2 l/m2 in 6 Std. Regen
Mo, 23.04. 8:00 0.0 l/m2 in 12 Std. -
Mo, 23.04. 2:00 0.0 l/m2 in 6 Std. -
So, 22.04. 20:00 0.0 l/m2 in 12 Std. -
Ortszeit Niederschlagsmenge Niederschlagsart
Di, 24.04. 16:10 keine Meldung -
Di, 24.04. 16:00 0.0 l/m2 in 1 Std. -
Di, 24.04. 15:50 keine Meldung -
Di, 24.04. 15:40 keine Meldung -
Di, 24.04. 15:30 0.0 l/m2 in 1 Std. -
Di, 24.04. 15:20 keine Meldung -
Di, 24.04. 15:00 0.0 l/m2 in 1 Std. -
Di, 24.04. 14:30 0.0 l/m2 in 1 Std. -
Di, 24.04. 14:00 0.0 l/m2 in 1 Std. -
Di, 24.04. 13:30 0.0 l/m2 in 1 Std. -
Di, 24.04. 13:00 0.0 l/m2 in 1 Std. -
Ortszeit Stärke Spitze Richtung
km/h Bft. km/h Grad Sektor
Di, 24.04. 14:00 17 3 31 230° SW
Di, 24.04. 8:00 4 1 18 350° N
Di, 24.04. 2:00 11 2 22 180° S
Mo, 23.04. 20:00 4 1 22 340° N
Mo, 23.04. 14:00 7 2 25 70° O
Mo, 23.04. 8:00 17 3 26 220° SW
Mo, 23.04. 2:00 0 0 18 - -
So, 22.04. 20:00 11 2 36 220° SW
Ortszeit Stärke Spitze Richtung
km/h Bft. km/h Grad Sektor
Di, 24.04. 16:10 15 3 - 270° W
Di, 24.04. 16:00 13 3 26 290° W
Di, 24.04. 15:50 13 3 - 290° W
Di, 24.04. 15:40 13 3 - 280° W
Di, 24.04. 15:30 7 2 22 230° SW
Di, 24.04. 15:20 7 2 - 230° SW
Di, 24.04. 15:00 7 2 29 270° W
Di, 24.04. 14:30 13 3 28 240° SW
Di, 24.04. 14:00 17 3 31 230° SW
Di, 24.04. 13:30 17 3 31 240° SW
Di, 24.04. 13:00 18 3 29 220° SW
Ortszeit Untergrenze Bedeckung Gattung
total tief tief mittel hoch
Di, 24.04. 14:00 1440 m 7/8 3/8 - - -
Di, 24.04. 8:00 1500 m 4/8 4/8 - - -
Di, 24.04. 2:00 1500 m 8/8 8/8 - - -
Mo, 23.04. 20:00 1800 m 8/8 2/8 - - -
Mo, 23.04. 14:00 1800 m 8/8 8/8 - - -
Mo, 23.04. 8:00 2400 m 7/8 4/8 - - -
Mo, 23.04. 2:00 3000 m 8/8 8/8 - - -
So, 22.04. 20:00 7800 m 7/8 0/8 - - -
Ortszeit Bedeckungsgrad in Achtel und Wolkenuntergrenze
Di, 24.04. 16:10 3(1800m) 7(9000m)
Di, 24.04. 16:00 6(1800m) 7(10500m)
Di, 24.04. 15:50 6(1800m) 7(10500m)
Di, 24.04. 15:40 6(1800m) 7(7800m)
Di, 24.04. 15:30 3(1800m) 7(8700m) 7(9000m)
Di, 24.04. 15:20 3(1800m) 7(8700m) 7(9000m)
Di, 24.04. 15:00 4(1500m) 5(7500m) 7(8100m)
Di, 24.04. 14:30 5(1470m) 6(1500m) 7(7800m)
Di, 24.04. 14:00 3(1440m) 7(7800m) 7(9000m)
Di, 24.04. 13:30 2(1350m) 7(7800m) 7(9000m)
Di, 24.04. 13:00 3(1230m) 7(8100m) 7(9000m)
Ortszeit Luftdruck NN (hPa) Tendenz (hPa in 3 Std.)
Di, 24.04. 14:00 1018 - 1,1
Di, 24.04. 8:00 1021 + 0,2
Di, 24.04. 2:00 1020 + 0,1
Mo, 23.04. 20:00 1019 - 0,6
Mo, 23.04. 14:00 1019 + 1,1
Mo, 23.04. 8:00 1016 + 0,2
Mo, 23.04. 2:00 1016 + 0,4
So, 22.04. 20:00 1013 + 0,1
Ortszeit Luftdruck NN (hPa) Tendenz (hPa in 3 Std.)
Di, 24.04. 16:10 1017 keine Meldung
Di, 24.04. 16:00 1017 - 1,7
Di, 24.04. 15:50 1017 keine Meldung
Di, 24.04. 15:40 1017 keine Meldung
Di, 24.04. 15:30 1017 - 1,7
Di, 24.04. 15:20 1017 keine Meldung
Di, 24.04. 15:00 1018 - 1,7
Di, 24.04. 14:30 1018 - 1,5
Di, 24.04. 14:00 1018 - 1,1
Di, 24.04. 13:30 1019 - 1,0
Di, 24.04. 13:00 1019 - 0,9
Ortszeit Schneehöhe (cm)
Di, 24.04. 14:00 0
Di, 24.04. 8:00 0
Di, 24.04. 2:00 0
Mo, 23.04. 20:00 0
Mo, 23.04. 14:00 0
Mo, 23.04. 8:00 0
Mo, 23.04. 2:00 0
So, 22.04. 20:00 0
Ortszeit Schneehöhe (cm)
Di, 24.04. 16:10 0
Di, 24.04. 16:00 0
Di, 24.04. 15:50 0
Di, 24.04. 15:40 0
Di, 24.04. 15:30 0
Di, 24.04. 15:20 0
Di, 24.04. 15:00 0
Di, 24.04. 14:30 0
Di, 24.04. 14:00 0
Di, 24.04. 13:30 0
Di, 24.04. 13:00 0
Link zu dieser Seite / Seite empfehlen

Das Wetter in ...